createdAt,value
2018-05-09T00:00:00.645Z,18.10
2018-05-09T00:02:28.071Z,18.00
2018-05-09T00:04:55.494Z,18.00
2018-05-09T00:07:23.008Z,18.00
2018-05-09T00:09:50.426Z,18.00
2018-05-09T00:12:17.950Z,18.00
2018-05-09T00:14:45.415Z,18.00
2018-05-09T00:17:12.847Z,17.90
2018-05-09T00:19:40.266Z,17.80
2018-05-09T00:22:07.726Z,17.80
2018-05-09T00:24:35.146Z,17.80
2018-05-09T00:27:03.335Z,17.70
2018-05-09T00:29:32.262Z,17.70
2018-05-09T00:32:00.471Z,17.70
2018-05-09T00:34:27.890Z,17.70
2018-05-09T00:36:55.411Z,17.60
2018-05-09T00:39:22.882Z,17.60
2018-05-09T00:41:50.408Z,17.60
2018-05-09T00:44:17.819Z,17.60
2018-05-09T00:46:45.246Z,17.50
2018-05-09T00:49:12.666Z,17.50
2018-05-09T00:51:40.135Z,17.40
2018-05-09T00:54:19.476Z,17.40
2018-05-09T00:56:46.899Z,17.30
2018-05-09T00:59:14.418Z,17.30
2018-05-09T01:01:41.842Z,17.30
2018-05-09T01:04:09.355Z,17.30
2018-05-09T01:06:36.778Z,17.20
2018-05-09T01:09:04.195Z,17.20
2018-05-09T01:11:31.618Z,17.20
2018-05-09T01:13:59.034Z,17.10
2018-05-09T01:16:26.507Z,17.10
2018-05-09T01:18:53.978Z,17.10
2018-05-09T01:21:21.446Z,17.10
2018-05-09T01:23:48.915Z,17.10
2018-05-09T01:26:16.380Z,17.10
2018-05-09T01:28:43.809Z,17.10
2018-05-09T01:31:11.327Z,17.00
2018-05-09T01:33:38.791Z,17.00
2018-05-09T01:36:06.263Z,17.00
2018-05-09T01:38:33.738Z,16.90
2018-05-09T01:41:01.158Z,16.90
2018-05-09T01:43:28.575Z,16.90
2018-05-09T01:45:56.007Z,16.90
2018-05-09T01:48:24.195Z,16.90
2018-05-09T01:50:52.406Z,16.90
2018-05-09T01:53:19.887Z,16.90
2018-05-09T01:55:47.315Z,16.90
2018-05-09T01:58:15.502Z,16.90
2018-05-09T02:00:43.015Z,16.90
2018-05-09T02:03:10.478Z,16.90
2018-05-09T02:05:37.951Z,16.80
2018-05-09T02:08:05.418Z,16.80
2018-05-09T02:10:32.890Z,16.80
2018-05-09T02:13:00.358Z,16.80
2018-05-09T02:15:27.779Z,16.80
2018-05-09T02:17:56.031Z,16.80
2018-05-09T02:20:23.589Z,16.70
2018-05-09T02:22:51.027Z,16.70
2018-05-09T02:25:19.215Z,16.70
2018-05-09T02:27:47.435Z,16.60
2018-05-09T02:30:14.851Z,16.50
2018-05-09T02:32:42.374Z,16.50
2018-05-09T02:35:09.786Z,16.50
2018-05-09T02:37:38.728Z,16.40
2018-05-09T02:40:06.934Z,16.30
2018-05-09T02:42:34.362Z,16.30
2018-05-09T02:45:01.782Z,16.30
2018-05-09T02:47:29.209Z,16.30
2018-05-09T02:49:57.442Z,16.30
2018-05-09T02:52:24.907Z,16.30
2018-05-09T02:54:52.319Z,16.30
2018-05-09T02:57:19.741Z,16.40
2018-05-09T02:59:47.164Z,16.30
2018-05-09T03:02:14.679Z,16.30
2018-05-09T03:04:42.107Z,16.30
2018-05-09T03:07:10.330Z,16.20
2018-05-09T03:09:37.878Z,16.20
2018-05-09T03:12:05.290Z,16.20
2018-05-09T03:14:32.703Z,16.20
2018-05-09T03:17:00.126Z,16.10
2018-05-09T03:19:27.542Z,16.00
2018-05-09T03:21:55.763Z,15.90
2018-05-09T03:24:23.238Z,15.90
2018-05-09T03:26:50.670Z,15.90
2018-05-09T03:29:18.851Z,15.80
2018-05-09T03:31:46.359Z,15.80
2018-05-09T03:34:13.778Z,15.80
2018-05-09T03:36:41.205Z,15.80
2018-05-09T03:39:08.631Z,15.80
2018-05-09T03:41:36.055Z,15.80
2018-05-09T03:44:03.476Z,15.80
2018-05-09T03:46:31.662Z,15.80
2018-05-09T03:48:59.850Z,15.80
2018-05-09T03:51:28.070Z,15.80
2018-05-09T03:53:56.299Z,15.90
2018-05-09T03:56:24.498Z,15.90
2018-05-09T03:58:52.011Z,15.90
2018-05-09T04:01:19.480Z,16.00
2018-05-09T04:03:59.043Z,16.00
2018-05-09T04:06:38.579Z,16.00
2018-05-09T04:09:17.938Z,16.00
2018-05-09T04:11:45.362Z,16.00
2018-05-09T04:14:12.782Z,16.00
2018-05-09T04:16:40.210Z,16.00
2018-05-09T04:19:07.742Z,16.00
2018-05-09T04:21:35.171Z,16.00
2018-05-09T04:24:03.352Z,16.10
2018-05-09T04:26:31.538Z,16.10
2018-05-09T04:28:59.722Z,16.10
2018-05-09T04:31:27.902Z,16.20
2018-05-09T04:33:56.099Z,16.10
2018-05-09T04:36:24.283Z,16.20
2018-05-09T04:38:52.501Z,16.20
2018-05-09T04:41:19.914Z,16.20
2018-05-09T04:43:47.418Z,16.20
2018-05-09T04:46:15.607Z,16.20
2018-05-09T04:48:43.807Z,16.20
2018-05-09T04:51:11.275Z,16.20
2018-05-09T04:53:38.700Z,16.30
2018-05-09T04:56:06.115Z,16.30
2018-05-09T04:58:33.586Z,16.30
2018-05-09T05:01:01.059Z,16.40
2018-05-09T05:03:28.537Z,16.40
2018-05-09T05:05:56.003Z,16.50
2018-05-09T05:08:23.426Z,16.50
2018-05-09T05:10:51.647Z,16.60
2018-05-09T05:13:19.152Z,16.60
2018-05-09T05:15:46.785Z,16.70
2018-05-09T05:18:14.117Z,16.80
2018-05-09T05:20:41.640Z,17.00
2018-05-09T05:23:09.057Z,17.20
2018-05-09T05:25:36.475Z,17.40
2018-05-09T05:28:03.915Z,17.50
2018-05-09T05:30:32.098Z,17.80
2018-05-09T05:33:00.282Z,17.90
2018-05-09T05:35:28.474Z,17.90
2018-05-09T05:37:56.687Z,17.90
2018-05-09T05:40:24.109Z,17.90
2018-05-09T05:42:51.634Z,17.90
2018-05-09T05:45:19.175Z,17.80
2018-05-09T05:47:46.571Z,17.70
2018-05-09T05:50:13.986Z,17.60
2018-05-09T05:52:42.939Z,17.50
2018-05-09T05:55:10.363Z,17.50
2018-05-09T05:57:38.602Z,17.50
2018-05-09T06:00:06.015Z,17.50
2018-05-09T06:02:34.211Z,17.60
2018-05-09T06:05:01.734Z,17.60
2018-05-09T06:07:29.162Z,17.70
2018-05-09T06:09:57.351Z,17.80
2018-05-09T06:12:25.547Z,17.90
2018-05-09T06:14:53.739Z,17.90
2018-05-09T06:17:21.967Z,18.00
2018-05-09T06:19:49.422Z,18.00
2018-05-09T06:22:16.842Z,18.00
2018-05-09T06:24:44.263Z,18.10
2018-05-09T06:27:11.684Z,18.20
2018-05-09T06:29:39.903Z,18.30
2018-05-09T06:32:07.380Z,18.30
2018-05-09T06:34:34.801Z,18.40
2018-05-09T06:37:02.317Z,18.50
2018-05-09T06:39:29.743Z,18.70
2018-05-09T06:41:57.979Z,19.10
2018-05-09T06:44:25.452Z,19.00
2018-05-09T06:46:53.610Z,19.20
2018-05-09T06:49:21.822Z,19.30
2018-05-09T06:51:49.243Z,19.30
2018-05-09T06:54:16.674Z,19.30
2018-05-09T06:56:44.127Z,19.40
2018-05-09T06:59:11.546Z,19.50
2018-05-09T07:01:38.971Z,19.60
2018-05-09T07:04:06.431Z,19.60
2018-05-09T07:06:33.932Z,19.70
2018-05-09T07:09:02.054Z,19.80
2018-05-09T07:11:30.239Z,19.80
2018-05-09T07:13:57.659Z,19.80
2018-05-09T07:16:25.119Z,19.80
2018-05-09T07:18:52.542Z,19.90
2018-05-09T07:21:20.739Z,19.90
2018-05-09T07:23:48.930Z,20.00
2018-05-09T07:26:17.118Z,20.10
2018-05-09T07:28:45.310Z,20.10
2018-05-09T07:31:13.518Z,20.20
2018-05-09T07:33:40.931Z,20.20
2018-05-09T07:36:08.458Z,20.30
2018-05-09T07:38:35.922Z,20.30
2018-05-09T07:41:03.396Z,20.40
2018-05-09T07:43:30.815Z,20.50
2018-05-09T07:45:58.339Z,20.60
2018-05-09T07:48:25.810Z,20.70
2018-05-09T07:50:53.284Z,20.80
2018-05-09T07:53:20.750Z,20.90
2018-05-09T07:55:48.183Z,20.90
2018-05-09T07:58:16.379Z,21.10
2018-05-09T08:00:44.567Z,21.10
2018-05-09T08:03:12.779Z,21.20
2018-05-09T08:05:40.259Z,21.20
2018-05-09T08:08:07.674Z,21.30
2018-05-09T08:10:35.191Z,21.30
2018-05-09T08:13:02.663Z,21.40
2018-05-09T08:15:30.123Z,21.40
2018-05-09T08:17:57.538Z,21.50
2018-05-09T08:20:25.071Z,21.60
2018-05-09T08:22:52.491Z,21.70
2018-05-09T08:25:20.007Z,21.80
2018-05-09T08:27:47.421Z,21.90
2018-05-09T08:30:14.859Z,22.00
2018-05-09T08:32:42.267Z,22.10
2018-05-09T08:35:10.458Z,22.20
2018-05-09T08:37:37.883Z,22.20
2018-05-09T08:40:05.343Z,22.30
2018-05-09T08:42:32.763Z,22.40
2018-05-09T08:45:00.192Z,22.50
2018-05-09T08:47:27.610Z,22.60
2018-05-09T08:49:55.030Z,22.80
2018-05-09T08:52:22.487Z,22.90
2018-05-09T08:54:49.951Z,22.90
2018-05-09T08:57:17.378Z,23.00
2018-05-09T08:59:44.803Z,23.10
2018-05-09T09:02:12.262Z,23.20
2018-05-09T09:04:39.733Z,23.30
2018-05-09T09:07:07.211Z,23.50
2018-05-09T09:09:34.669Z,23.60
2018-05-09T09:12:02.142Z,23.70
2018-05-09T09:14:29.607Z,23.90
2018-05-09T09:16:57.083Z,24.00
2018-05-09T09:19:24.510Z,24.10
2018-05-09T09:21:51.938Z,24.30
2018-05-09T09:24:19.348Z,24.40
2018-05-09T09:26:46.787Z,24.50
2018-05-09T09:29:14.283Z,24.70
2018-05-09T09:31:41.646Z,24.80
2018-05-09T09:34:09.167Z,25.00
2018-05-09T09:36:36.590Z,25.10
2018-05-09T09:39:04.016Z,25.20
2018-05-09T09:41:31.514Z,25.40
2018-05-09T09:43:59.631Z,25.70
2018-05-09T09:46:27.832Z,25.90
2018-05-09T09:48:56.015Z,26.00
2018-05-09T09:51:23.515Z,26.00
2018-05-09T09:53:50.978Z,26.10
2018-05-09T09:56:18.398Z,26.20
2018-05-09T09:58:45.912Z,26.40
2018-05-09T10:01:13.334Z,26.60
2018-05-09T10:03:40.760Z,26.80
2018-05-09T10:06:08.227Z,26.90
2018-05-09T10:08:35.643Z,27.10
2018-05-09T10:11:03.162Z,27.20
2018-05-09T10:13:30.638Z,27.40
2018-05-09T10:15:58.131Z,27.60
2018-05-09T10:18:25.521Z,27.60
2018-05-09T10:20:52.951Z,27.50
2018-05-09T10:23:20.464Z,27.40
2018-05-09T10:25:47.879Z,27.40
2018-05-09T10:28:15.350Z,27.60
2018-05-09T10:30:42.787Z,27.90
2018-05-09T10:33:11.007Z,28.10
2018-05-09T10:35:38.423Z,28.10
2018-05-09T10:38:05.853Z,28.40
2018-05-09T10:40:33.315Z,28.70
2018-05-09T10:43:00.738Z,28.80
2018-05-09T10:45:28.164Z,28.80
2018-05-09T10:47:55.585Z,28.80
2018-05-09T10:50:23.814Z,29.30
2018-05-09T10:52:51.235Z,29.30
2018-05-09T10:55:18.660Z,28.80
2018-05-09T10:57:46.090Z,28.60
2018-05-09T11:00:14.279Z,28.40
2018-05-09T11:02:42.487Z,28.20
2018-05-09T11:05:09.991Z,28.10
2018-05-09T11:07:37.427Z,28.50
2018-05-09T11:10:04.903Z,28.90
2018-05-09T11:12:32.327Z,28.80
2018-05-09T11:14:59.842Z,28.80
2018-05-09T11:17:27.334Z,29.30
2018-05-09T11:19:55.466Z,29.60
2018-05-09T11:22:23.683Z,29.00
2018-05-09T11:24:51.101Z,29.00
2018-05-09T11:27:18.522Z,28.70
2018-05-09T11:29:45.987Z,28.80
2018-05-09T11:32:13.410Z,28.80
2018-05-09T11:34:40.838Z,29.00
2018-05-09T11:37:08.266Z,29.00
2018-05-09T11:39:36.450Z,28.20
2018-05-09T11:42:04.671Z,27.80
2018-05-09T11:44:32.091Z,27.70
2018-05-09T11:46:59.611Z,27.40
2018-05-09T11:49:27.083Z,27.20
2018-05-09T11:51:54.511Z,27.00
2018-05-09T11:54:22.703Z,28.40
2018-05-09T11:56:50.922Z,29.30
2018-05-09T11:59:18.390Z,29.30
2018-05-09T12:01:45.822Z,29.60
2018-05-09T12:04:13.243Z,29.70
2018-05-09T12:06:40.698Z,29.70
2018-05-09T12:09:08.218Z,29.50
2018-05-09T12:11:35.747Z,29.50
2018-05-09T12:14:03.171Z,29.20
2018-05-09T12:16:31.366Z,29.40
2018-05-09T12:18:59.563Z,29.80
2018-05-09T12:21:27.751Z,30.10
2018-05-09T12:23:55.966Z,30.60
2018-05-09T12:26:23.427Z,30.60
2018-05-09T12:28:50.843Z,31.20
2018-05-09T12:31:18.267Z,31.60
2018-05-09T12:33:45.699Z,31.80
2018-05-09T12:36:13.886Z,32.10
2018-05-09T12:38:42.078Z,31.90
2018-05-09T12:41:10.262Z,32.00
2018-05-09T12:43:38.451Z,32.10
2018-05-09T12:46:06.632Z,32.50
2018-05-09T12:48:34.944Z,32.80
2018-05-09T12:51:02.295Z,32.70
2018-05-09T12:53:30.483Z,32.40
2018-05-09T12:55:58.702Z,31.70
2018-05-09T12:58:26.143Z,31.70
2018-05-09T13:00:54.350Z,31.20
2018-05-09T13:03:21.783Z,31.10
2018-05-09T13:05:49.970Z,32.00
2018-05-09T13:08:17.399Z,32.00
2018-05-09T13:10:44.846Z,32.20
2018-05-09T13:13:12.406Z,32.30
2018-05-09T13:15:39.790Z,32.50
2018-05-09T13:18:07.258Z,32.50
2018-05-09T13:20:34.728Z,32.60
2018-05-09T13:23:02.198Z,32.50
2018-05-09T13:25:29.667Z,32.60
2018-05-09T13:27:57.139Z,32.80
2018-05-09T13:30:24.646Z,32.90
2018-05-09T13:32:52.075Z,32.90
2018-05-09T13:35:19.559Z,33.00
2018-05-09T13:37:46.983Z,33.20
2018-05-09T13:40:15.187Z,32.90
2018-05-09T13:42:43.371Z,32.30
2018-05-09T13:45:11.555Z,31.50
2018-05-09T13:47:39.766Z,30.90
2018-05-09T13:50:07.234Z,30.90
2018-05-09T13:52:34.666Z,30.50
2018-05-09T13:55:02.179Z,30.00
2018-05-09T13:57:29.607Z,29.70
2018-05-09T13:59:57.115Z,29.40
2018-05-09T14:02:24.546Z,29.20
2018-05-09T14:04:51.962Z,29.20
2018-05-09T14:07:19.427Z,29.20
2018-05-09T14:09:46.906Z,29.40
2018-05-09T14:12:14.271Z,29.80
2018-05-09T14:14:41.691Z,30.40
2018-05-09T14:17:09.115Z,31.00
2018-05-09T14:19:36.544Z,31.50
2018-05-09T14:22:04.732Z,32.10
2018-05-09T14:24:32.939Z,32.20
2018-05-09T14:27:00.363Z,32.20
2018-05-09T14:29:28.550Z,32.70
2018-05-09T14:31:55.974Z,32.70
2018-05-09T14:34:23.400Z,32.90
2018-05-09T14:36:51.619Z,32.70
2018-05-09T14:39:19.850Z,32.70
2018-05-09T14:41:47.274Z,32.70
2018-05-09T14:44:14.693Z,32.90
2018-05-09T14:46:42.171Z,32.90
2018-05-09T14:49:09.538Z,33.00
2018-05-09T14:51:37.055Z,33.00
2018-05-09T14:54:04.527Z,33.10
2018-05-09T14:56:31.943Z,33.30
2018-05-09T14:58:59.374Z,33.40
2018-05-09T15:01:26.834Z,33.50
2018-05-09T15:03:54.263Z,33.70
2018-05-09T15:06:21.678Z,33.70
2018-05-09T15:08:49.111Z,33.60
2018-05-09T15:11:17.292Z,33.50
2018-05-09T15:13:45.511Z,33.40
2018-05-09T15:16:12.979Z,33.40
2018-05-09T15:18:40.452Z,33.40
2018-05-09T15:21:07.878Z,33.40
2018-05-09T15:23:35.393Z,33.40
2018-05-09T15:26:02.818Z,33.50
2018-05-09T15:28:30.294Z,33.50
2018-05-09T15:30:57.804Z,33.40
2018-05-09T15:33:25.279Z,33.40
2018-05-09T15:35:52.702Z,33.30
2018-05-09T15:38:20.211Z,33.30
2018-05-09T15:40:47.682Z,33.40
2018-05-09T15:43:15.102Z,33.30
2018-05-09T15:45:43.346Z,32.10
2018-05-09T15:48:13.419Z,32.10
2018-05-09T15:50:40.946Z,31.40
2018-05-09T15:53:08.937Z,30.60
2018-05-09T15:55:36.347Z,30.20
2018-05-09T15:58:03.867Z,30.30
2018-05-09T16:00:31.344Z,30.70
2018-05-09T16:02:58.767Z,31.00
2018-05-09T16:05:26.991Z,31.50
2018-05-09T16:07:54.458Z,31.40
2018-05-09T16:10:22.000Z,31.70
2018-05-09T16:12:49.503Z,31.80
2018-05-09T16:15:17.694Z,31.80
2018-05-09T16:17:45.110Z,31.80
2018-05-09T16:20:12.631Z,31.90
2018-05-09T16:22:40.114Z,31.90
2018-05-09T16:25:07.529Z,31.70
2018-05-09T16:27:34.955Z,31.60
2018-05-09T16:30:02.395Z,31.40
2018-05-09T16:32:29.876Z,31.30
2018-05-09T16:34:57.310Z,31.10
2018-05-09T16:37:24.823Z,31.00
2018-05-09T16:39:52.251Z,30.70
2018-05-09T16:42:20.484Z,30.40
2018-05-09T16:44:47.939Z,30.30
2018-05-09T16:47:15.359Z,30.10
2018-05-09T16:49:42.794Z,29.90
2018-05-09T16:52:10.214Z,29.80
2018-05-09T16:54:38.438Z,29.30
2018-05-09T16:57:05.855Z,29.20
2018-05-09T16:59:33.292Z,28.90
2018-05-09T17:02:00.711Z,28.70
2018-05-09T17:04:28.930Z,28.30
2018-05-09T17:06:56.346Z,28.30
2018-05-09T17:09:24.543Z,27.90
2018-05-09T17:11:51.963Z,27.90
2018-05-09T17:14:19.395Z,27.70
2018-05-09T17:16:47.587Z,27.50
2018-05-09T17:19:15.872Z,27.40
2018-05-09T17:21:57.110Z,27.40
2018-05-09T17:24:24.571Z,27.30
2018-05-09T17:26:51.989Z,27.20
2018-05-09T17:29:19.410Z,27.00
2018-05-09T17:31:46.871Z,27.00
2018-05-09T17:34:14.343Z,26.80
2018-05-09T17:36:41.767Z,26.70
2018-05-09T17:39:09.183Z,26.60
2018-05-09T17:41:36.655Z,26.50
2018-05-09T17:44:04.078Z,26.40
2018-05-09T17:46:31.499Z,26.30
2018-05-09T17:48:58.965Z,26.20
2018-05-09T17:51:26.380Z,26.10
2018-05-09T17:53:53.899Z,25.90
2018-05-09T17:56:21.310Z,25.80
2018-05-09T17:58:48.858Z,25.70
2018-05-09T18:01:16.261Z,25.60
2018-05-09T18:03:43.778Z,25.50
2018-05-09T18:06:11.247Z,25.40
2018-05-09T18:08:38.668Z,25.40
2018-05-09T18:11:06.095Z,25.30
2018-05-09T18:13:33.557Z,25.20
2018-05-09T18:16:00.986Z,25.10
2018-05-09T18:18:28.499Z,25.00
2018-05-09T18:20:55.971Z,24.90
2018-05-09T18:23:23.443Z,24.80
2018-05-09T18:25:50.883Z,24.70
2018-05-09T18:28:19.058Z,24.50
2018-05-09T18:30:47.276Z,24.40
2018-05-09T18:33:14.747Z,24.40
2018-05-09T18:35:42.215Z,24.30
2018-05-09T18:38:09.643Z,24.20
2018-05-09T18:40:37.155Z,24.10
2018-05-09T18:43:04.584Z,24.00
2018-05-09T18:45:32.144Z,24.00
2018-05-09T18:47:59.519Z,23.90
2018-05-09T18:50:27.035Z,23.80
2018-05-09T18:52:54.513Z,23.70
2018-05-09T18:55:21.934Z,23.60
2018-05-09T18:57:50.119Z,23.40
2018-05-09T19:00:17.543Z,23.30
2018-05-09T19:02:44.966Z,23.30
2018-05-09T19:05:13.167Z,23.10
2018-05-09T19:07:41.375Z,23.00
2018-05-09T19:10:08.838Z,23.00
2018-05-09T19:12:36.258Z,22.90
2018-05-09T19:15:03.681Z,22.80
2018-05-09T19:17:31.099Z,22.70
2018-05-09T19:19:58.527Z,22.70
2018-05-09T19:22:25.944Z,22.60
2018-05-09T19:24:53.366Z,22.40
2018-05-09T19:27:20.831Z,22.30
2018-05-09T19:29:48.259Z,22.30
2018-05-09T19:32:16.582Z,22.10
2018-05-09T19:34:44.007Z,22.10
2018-05-09T19:37:11.426Z,22.00
2018-05-09T19:39:38.855Z,21.90
2018-05-09T19:42:07.039Z,21.80
2018-05-09T19:44:34.464Z,21.80
2018-05-09T19:47:01.887Z,21.70
2018-05-09T19:49:30.074Z,21.50
2018-05-09T19:51:58.254Z,21.50
2018-05-09T19:54:26.442Z,21.40
2018-05-09T19:56:54.635Z,21.30
2018-05-09T19:59:22.819Z,21.20
2018-05-09T20:01:51.007Z,21.10
2018-05-09T20:04:19.227Z,21.10
2018-05-09T20:06:46.654Z,21.00
2018-05-09T20:09:14.071Z,21.00
2018-05-09T20:11:41.504Z,20.90
2018-05-09T20:14:09.691Z,20.90
2018-05-09T20:16:37.885Z,20.90
2018-05-09T20:19:06.068Z,20.80
2018-05-09T20:21:34.258Z,20.80
2018-05-09T20:24:01.674Z,20.80
2018-05-09T20:26:29.099Z,20.80
2018-05-09T20:29:01.456Z,20.70
2018-05-09T20:31:46.332Z,20.60
2018-05-09T20:34:13.746Z,20.60
2018-05-09T20:36:41.178Z,20.60
2018-05-09T20:39:08.598Z,20.60
2018-05-09T20:41:36.014Z,20.50
2018-05-09T20:44:03.440Z,20.40
2018-05-09T20:46:30.862Z,20.40
2018-05-09T20:48:59.051Z,20.30
2018-05-09T20:51:39.095Z,20.20
2018-05-09T20:54:06.514Z,20.20
2018-05-09T20:56:33.942Z,20.20
2018-05-09T20:59:01.520Z,20.10
2018-05-09T21:01:40.641Z,20.10
2018-05-09T21:04:08.060Z,20.00
2018-05-09T21:06:35.485Z,20.00
2018-05-09T21:09:05.280Z,20.00
2018-05-09T21:11:32.743Z,20.00
2018-05-09T21:14:00.166Z,20.00
2018-05-09T21:16:27.594Z,20.00
2018-05-09T21:18:55.019Z,19.90
2018-05-09T21:21:22.473Z,19.90
2018-05-09T21:23:49.983Z,19.90
2018-05-09T21:26:17.446Z,19.80
2018-05-09T21:28:44.871Z,19.80
2018-05-09T21:31:12.391Z,19.80
2018-05-09T21:33:39.815Z,19.80
2018-05-09T21:36:07.238Z,19.80
2018-05-09T21:38:34.662Z,19.80
2018-05-09T21:41:02.867Z,19.70
2018-05-09T21:43:31.042Z,19.70
2018-05-09T21:45:59.250Z,19.60
2018-05-09T21:48:26.724Z,19.60
2018-05-09T21:50:54.150Z,19.60
2018-05-09T21:53:21.561Z,19.60
2018-05-09T21:55:49.020Z,19.50
2018-05-09T21:58:17.182Z,19.50
2018-05-09T22:00:45.406Z,19.50
2018-05-09T22:03:12.827Z,19.50
2018-05-09T22:05:40.343Z,19.50
2018-05-09T22:08:07.761Z,19.50
2018-05-09T22:10:35.190Z,19.40
2018-05-09T22:13:02.602Z,19.40
2018-05-09T22:15:30.035Z,19.30
2018-05-09T22:17:57.454Z,19.30
2018-05-09T22:20:25.675Z,19.30
2018-05-09T22:22:53.248Z,19.30
2018-05-09T22:25:20.723Z,19.30
2018-05-09T22:27:48.138Z,19.30
2018-05-09T22:30:15.562Z,19.30
2018-05-09T22:32:42.978Z,19.20
2018-05-09T22:35:10.498Z,19.20
2018-05-09T22:37:37.976Z,19.20
2018-05-09T22:40:05.386Z,19.20
2018-05-09T22:42:32.886Z,19.20
2018-05-09T22:45:01.094Z,19.20
2018-05-09T22:47:28.519Z,19.20
2018-05-09T22:49:55.943Z,19.20
2018-05-09T22:52:23.394Z,19.20
2018-05-09T22:54:50.884Z,19.10
2018-05-09T22:57:19.030Z,19.10
2018-05-09T22:59:47.243Z,19.10
2018-05-09T23:02:14.711Z,19.10
2018-05-09T23:04:42.186Z,19.10
2018-05-09T23:07:09.650Z,19.00
2018-05-09T23:09:37.077Z,19.00
2018-05-09T23:12:06.007Z,19.00
2018-05-09T23:14:34.194Z,18.90
2018-05-09T23:17:02.422Z,18.90
2018-05-09T23:19:29.811Z,18.90
2018-05-09T23:21:57.236Z,18.90
2018-05-09T23:24:24.658Z,18.90
2018-05-09T23:26:52.082Z,18.90
2018-05-09T23:29:19.543Z,18.90
2018-05-09T23:31:47.011Z,18.80
2018-05-09T23:34:14.434Z,18.80
2018-05-09T23:36:41.855Z,18.80
2018-05-09T23:39:10.139Z,18.80
2018-05-09T23:41:37.615Z,18.80
2018-05-09T23:44:05.039Z,18.70
2018-05-09T23:46:32.531Z,18.80
2018-05-09T23:49:00.719Z,18.70
2018-05-09T23:51:28.906Z,18.70
2018-05-09T23:53:57.123Z,18.70
2018-05-09T23:56:24.587Z,18.60
2018-05-09T23:58:52.003Z,18.70
